createdAt,value
2018-07-03T00:01:48.935Z,2.80
2018-07-03T00:03:54.007Z,2.33
2018-07-03T00:05:58.113Z,3.03
2018-07-03T00:08:05.988Z,0.90
2018-07-03T00:10:13.240Z,1.40
2018-07-03T00:12:19.422Z,1.90
2018-07-03T00:14:23.781Z,1.80
2018-07-03T00:16:33.404Z,2.33
2018-07-03T00:18:39.925Z,4.30
2018-07-03T00:20:44.812Z,1.47
2018-07-03T00:22:51.001Z,1.07
2018-07-03T00:24:56.038Z,1.37
2018-07-03T00:27:00.121Z,2.23
2018-07-03T00:29:04.233Z,1.80
2018-07-03T00:31:08.860Z,3.60
2018-07-03T00:33:13.616Z,3.53
2018-07-03T00:35:18.133Z,2.60
2018-07-03T00:37:22.659Z,2.30
2018-07-03T00:39:28.434Z,2.30
2018-07-03T00:41:34.246Z,1.53
2018-07-03T00:43:38.338Z,2.63
2018-07-03T00:45:42.434Z,2.07
2018-07-03T00:47:48.216Z,2.10
2018-07-03T00:49:52.803Z,1.70
2018-07-03T00:51:57.812Z,1.43
2018-07-03T00:54:01.781Z,1.43
2018-07-03T00:56:06.012Z,4.43
2018-07-03T00:58:13.560Z,0.73
2018-07-03T01:00:28.473Z,3.23
2018-07-03T01:02:32.446Z,1.47
2018-07-03T01:04:37.170Z,1.47
2018-07-03T01:06:42.558Z,1.53
2018-07-03T01:08:47.388Z,1.47
2018-07-03T01:10:52.345Z,5.87
2018-07-03T01:13:00.664Z,2.97
2018-07-03T01:15:06.362Z,5.00
2018-07-03T01:17:11.084Z,2.60
2018-07-03T01:19:15.885Z,3.07
2018-07-03T01:21:20.218Z,3.07
2018-07-03T01:23:24.677Z,3.00
2018-07-03T01:25:30.038Z,2.37
2018-07-03T01:27:34.208Z,2.33
2018-07-03T01:29:38.273Z,2.10
2018-07-03T01:31:43.402Z,2.67
2018-07-03T01:33:47.444Z,2.77
2018-07-03T01:35:53.462Z,2.37
2018-07-03T01:37:58.826Z,1.30
2018-07-03T01:40:02.897Z,1.73
2018-07-03T01:42:07.440Z,1.67
2018-07-03T01:44:11.748Z,2.27
2018-07-03T01:46:15.764Z,1.27
2018-07-03T01:48:19.763Z,3.60
2018-07-03T01:50:24.269Z,1.63
2018-07-03T01:52:28.375Z,2.70
2018-07-03T01:54:32.421Z,4.43
2018-07-03T01:56:36.757Z,4.03
2018-07-03T01:58:40.407Z,2.53
2018-07-03T02:00:44.422Z,2.57
2018-07-03T02:02:49.809Z,2.43
2018-07-03T02:04:53.784Z,0.77
2018-07-03T02:06:58.487Z,3.87
2018-07-03T02:09:06.250Z,1.47
2018-07-03T02:11:10.241Z,1.80
2018-07-03T02:13:14.264Z,3.60
2018-07-03T02:15:17.812Z,1.97
2018-07-03T02:17:21.880Z,3.23
2018-07-03T02:19:25.925Z,1.53
2018-07-03T02:21:30.346Z,3.87
2018-07-03T02:23:34.580Z,5.50
2018-07-03T02:25:39.422Z,5.87
2018-07-03T02:27:47.080Z,1.70
2018-07-03T02:29:51.120Z,3.17
2018-07-03T02:31:55.420Z,3.70
2018-07-03T02:34:02.599Z,2.13
2018-07-03T02:36:06.930Z,3.23
2018-07-03T02:38:11.128Z,2.40
2018-07-03T02:40:15.797Z,1.47
2018-07-03T02:42:19.816Z,4.33
2018-07-03T02:44:23.915Z,1.60
2018-07-03T02:46:28.263Z,3.17
2018-07-03T02:48:32.289Z,1.87
2018-07-03T02:50:36.343Z,1.30
2018-07-03T02:52:40.287Z,7.33
2018-07-03T02:54:44.253Z,2.83
2018-07-03T02:56:48.589Z,2.87
2018-07-03T02:58:54.149Z,1.43
2018-07-03T03:00:58.148Z,3.97
2018-07-03T03:03:02.170Z,3.77
2018-07-03T03:05:06.219Z,3.03
2018-07-03T03:07:10.251Z,1.07
2018-07-03T03:09:14.291Z,7.40
2018-07-03T03:11:21.433Z,3.50
2018-07-03T03:13:26.264Z,3.53
2018-07-03T03:15:30.396Z,3.33
2018-07-03T03:17:35.340Z,2.43
2018-07-03T03:19:39.459Z,3.40
2018-07-03T03:21:44.061Z,4.43
2018-07-03T03:23:48.494Z,1.27
2018-07-03T03:25:52.479Z,2.10
2018-07-03T03:27:56.568Z,2.20
2018-07-03T03:30:00.535Z,1.43
2018-07-03T03:32:04.575Z,5.80
2018-07-03T03:34:09.249Z,2.40
2018-07-03T03:36:13.324Z,3.00
2018-07-03T03:40:56.467Z,2.40
2018-07-03T03:43:01.364Z,2.57
2018-07-03T03:45:08.085Z,1.77
2018-07-03T03:47:13.528Z,2.83
2018-07-03T03:49:17.620Z,1.80
2018-07-03T03:51:21.152Z,4.43
2018-07-03T03:53:25.368Z,4.93
2018-07-03T03:55:29.326Z,2.33
2018-07-03T03:57:33.558Z,2.37
2018-07-03T03:59:38.996Z,2.53
2018-07-03T04:01:44.629Z,2.83
2018-07-03T04:03:48.692Z,1.13
2018-07-03T04:05:54.326Z,3.23
2018-07-03T04:07:58.400Z,3.83
2018-07-03T04:10:02.489Z,5.23
2018-07-03T04:12:07.945Z,2.97
2018-07-03T04:14:11.859Z,3.33
2018-07-03T04:16:16.485Z,1.73
2018-07-03T04:18:25.912Z,2.57
2018-07-03T04:20:29.820Z,4.30
2018-07-03T04:22:33.770Z,6.30
2018-07-03T04:24:41.211Z,2.73
2018-07-03T04:26:45.234Z,2.93
2018-07-03T04:28:49.310Z,5.43
2018-07-03T04:30:53.729Z,6.57
2018-07-03T04:32:57.754Z,3.47
2018-07-03T04:35:02.321Z,4.83
2018-07-03T04:37:07.341Z,5.20
2018-07-03T04:39:13.817Z,7.63
2018-07-03T04:41:17.988Z,9.10
2018-07-03T04:43:22.112Z,7.93
2018-07-03T04:45:25.640Z,8.17
2018-07-03T04:47:29.733Z,4.47
2018-07-03T04:49:34.194Z,5.93
2018-07-03T04:51:38.157Z,6.87
2018-07-03T04:53:42.180Z,10.67
2018-07-03T04:55:47.517Z,6.93
2018-07-03T04:57:53.569Z,6.40
2018-07-03T04:59:57.496Z,6.87
2018-07-03T05:02:02.013Z,5.63
2018-07-03T05:04:06.539Z,7.40
2018-07-03T05:06:10.604Z,9.80
2018-07-03T05:08:15.125Z,11.23
2018-07-03T05:10:19.766Z,10.23
2018-07-03T05:12:23.789Z,6.37
2018-07-03T05:14:30.340Z,8.93
2018-07-03T05:16:34.373Z,4.67
2018-07-03T05:18:38.422Z,12.97
2018-07-03T05:20:43.162Z,9.10
2018-07-03T05:22:49.760Z,7.53
2018-07-03T05:24:53.749Z,7.87
2018-07-03T05:26:59.430Z,10.53
2018-07-03T05:29:04.813Z,4.23
2018-07-03T05:31:08.785Z,7.50
2018-07-03T05:33:13.225Z,8.00
2018-07-03T05:35:18.301Z,10.27
2018-07-03T05:37:23.820Z,14.83
2018-07-03T05:39:28.441Z,8.00
2018-07-03T05:41:40.602Z,10.47
2018-07-03T05:43:50.548Z,10.00
2018-07-03T05:45:55.030Z,10.20
2018-07-03T05:47:59.662Z,14.83
2018-07-03T05:50:05.467Z,8.20
2018-07-03T05:52:09.813Z,12.90
2018-07-03T05:54:13.796Z,11.07
2018-07-03T05:56:17.822Z,8.07
2018-07-03T05:58:24.097Z,11.47
2018-07-03T06:00:30.344Z,9.40
2018-07-03T06:02:35.474Z,5.70
2018-07-03T06:04:46.292Z,6.83
2018-07-03T06:06:51.998Z,4.90
2018-07-03T06:08:55.982Z,4.03
2018-07-03T06:16:54.785Z,2.90
2018-07-03T06:18:58.857Z,2.20
2018-07-03T06:21:03.124Z,2.50
2018-07-03T06:23:10.073Z,4.50
2018-07-03T06:25:16.077Z,3.10
2018-07-03T06:27:37.273Z,3.23
2018-07-03T06:29:49.416Z,2.80
2018-07-03T06:31:53.487Z,4.43
2018-07-03T06:36:22.897Z,5.70
2018-07-03T06:38:36.697Z,2.37
2018-07-03T06:40:41.504Z,2.13
2018-07-03T06:42:56.512Z,2.80
2018-07-03T06:45:04.835Z,5.03
2018-07-03T06:47:13.418Z,2.70
2018-07-03T06:49:18.416Z,4.07
2018-07-03T06:51:29.659Z,5.27
2018-07-03T06:53:33.716Z,1.43
2018-07-03T06:55:50.979Z,2.90
2018-07-03T06:57:57.603Z,6.03
2018-07-03T07:00:06.391Z,1.30
2018-07-03T07:02:15.300Z,2.60
2018-07-03T07:04:33.621Z,1.53
2018-07-03T07:06:45.710Z,1.57
2018-07-03T07:09:05.506Z,2.47
2018-07-03T07:11:12.959Z,3.73
2018-07-03T07:13:16.952Z,5.03
2018-07-03T07:15:21.238Z,4.90
2018-07-03T07:17:25.214Z,2.90
2018-07-03T07:19:29.249Z,5.47
2018-07-03T07:21:33.457Z,3.23
2018-07-03T07:23:43.703Z,1.10
2018-07-03T07:25:48.101Z,2.07
2018-07-03T07:27:52.732Z,4.30
2018-07-03T07:29:56.818Z,5.27
2018-07-03T07:32:03.224Z,4.57
2018-07-03T07:36:16.452Z,2.20
2018-07-03T07:38:22.204Z,4.77
2018-07-03T07:40:26.539Z,2.73
2018-07-03T07:42:30.579Z,4.37
2018-07-03T07:44:34.892Z,2.17
2018-07-03T07:46:39.780Z,7.07
2018-07-03T07:48:44.021Z,5.33
2018-07-03T07:50:48.850Z,3.37
2018-07-03T07:52:54.912Z,5.80
2018-07-03T07:55:05.814Z,1.13
2018-07-03T07:57:10.708Z,3.37
2018-07-03T07:59:15.283Z,4.00
2018-07-03T08:01:19.425Z,2.73
2018-07-03T08:03:23.487Z,5.37
2018-07-03T08:05:27.717Z,2.63
2018-07-03T08:07:34.024Z,2.23
2018-07-03T08:09:39.324Z,7.00
2018-07-03T08:11:44.132Z,3.80
2018-07-03T08:13:48.779Z,9.13
2018-07-03T08:15:56.542Z,3.20
2018-07-03T08:20:23.234Z,4.27
